Time;durP1;ratioP1;P1;durP2;ratioP2;P2;SDS_P1;SDS_P2;PMS_P1;PMS_P2;Temp;Humidity;BMP_temperature;BMP_pressure;BME280_temperature;BME280_humidity;BME280_pressure;Samples;Min_cycle;Max_cycle;Signal;HPM_P1;HPM_P2
2022/06/01 00:02:13;;;;;;;5.50;4.30;;;;;;;24.46;52.74;100933.52;107245;1283;61275;-82
2022/06/01 00:04:39;;;;;;;5.50;3.90;;;;;;;24.46;52.66;100935.69;107197;1283;61795;-81
2022/06/01 00:07:05;;;;;;;5.90;4.30;;;;;;;24.46;52.78;100934.64;106995;1283;61840;-81
2022/06/01 00:09:30;;;;;;;5.60;4.30;;;;;;;24.46;52.90;100933.21;106889;1282;61330;-83
2022/06/01 00:11:56;;;;;;;6.20;4.10;;;;;;;24.46;52.86;100933.02;107226;1283;61234;-84
2022/06/01 00:14:22;;;;;;;5.60;4.00;;;;;;;24.46;52.69;100932.85;106893;1283;61246;-83
2022/06/01 00:16:47;;;;;;;5.70;4.30;;;;;;;24.45;52.78;100926.26;106910;1283;61451;-83
2022/06/01 00:19:13;;;;;;;5.70;4.20;;;;;;;24.46;52.72;100927.82;107021;1283;61237;-82
2022/06/01 00:22:11;;;;;;;6.10;4.20;;;;;;;24.45;52.74;100927.14;106923;1283;60037;-81
2022/06/01 00:24:24;;;;;;;5.40;3.80;;;;;;;24.45;52.74;100921.75;106939;1283;72769;-81
2022/06/01 00:26:50;;;;;;;6.90;4.40;;;;;;;24.45;52.71;100918.35;106910;1283;61252;-82
2022/06/01 00:29:17;;;;;;;6.20;4.20;;;;;;;24.45;52.84;100916.20;106930;1283;61494;-81
2022/06/01 00:31:42;;;;;;;6.70;4.30;;;;;;;24.44;52.73;100912.59;106663;1283;61265;-83
2022/06/01 00:34:08;;;;;;;5.60;4.20;;;;;;;24.44;52.74;100910.66;106943;1283;61286;-83
2022/06/01 00:36:34;;;;;;;6.30;4.20;;;;;;;24.44;52.84;100905.99;106963;1283;61228;-83
2022/06/01 00:38:59;;;;;;;5.30;4.00;;;;;;;24.45;52.83;100904.13;106934;1283;61375;-82
2022/06/01 00:41:25;;;;;;;5.30;4.10;;;;;;;24.44;52.76;100903.64;106680;1283;61243;-83
2022/06/01 00:43:51;;;;;;;5.70;4.20;;;;;;;24.44;52.79;100900.40;106848;1283;61410;-82
2022/06/01 00:46:16;;;;;;;4.90;3.60;;;;;;;24.44;52.77;100894.66;106953;1283;61124;-82
2022/06/01 00:48:45;;;;;;;6.90;4.30;;;;;;;24.44;52.67;100891.93;106888;1283;61279;-83
2022/06/01 00:51:11;;;;;;;4.90;3.80;;;;;;;24.44;52.79;100889.80;106635;1283;61128;-80
2022/06/01 00:53:37;;;;;;;5.90;4.30;;;;;;;24.44;52.81;100889.27;106903;1283;59311;-83
2022/06/01 00:56:06;;;;;;;5.60;4.00;;;;;;;24.44;52.78;100888.55;106561;1284;61343;-85
2022/06/01 00:58:36;;;;;;;6.50;4.20;;;;;;;24.44;52.86;100887.30;106886;1283;73973;-83
2022/06/01 01:01:02;;;;;;;7.10;4.50;;;;;;;24.43;52.86;100883.75;106563;1285;61194;-82
2022/06/01 01:03:30;;;;;;;4.90;3.80;;;;;;;24.43;52.71;100882.64;106866;1283;61299;-81
2022/06/01 01:06:19;;;;;;;5.90;3.70;;;;;;;24.43;52.78;100882.49;106842;1283;73632;-85
2022/06/01 01:08:46;;;;;;;6.10;4.40;;;;;;;24.42;52.79;100880.02;106894;1283;74923;-82
2022/06/01 01:11:12;;;;;;;5.70;4.10;;;;;;;24.42;52.85;100873.73;106836;1283;61118;-83
2022/06/01 01:13:39;;;;;;;5.70;4.10;;;;;;;24.42;52.92;100869.98;106914;1283;61266;-83
2022/06/01 01:16:04;;;;;;;6.10;4.20;;;;;;;24.43;52.90;100875.15;106917;1283;61410;-83
2022/06/01 01:18:41;;;;;;;5.30;4.10;;;;;;;24.43;52.84;100877.84;106894;1283;61330;-81
2022/06/01 01:21:28;;;;;;;5.10;3.70;;;;;;;24.42;52.83;100874.66;107178;1283;61709;-81
2022/06/01 01:23:58;;;;;;;5.60;4.30;;;;;;;24.42;52.90;100879.52;107199;1283;61460;-82
2022/06/01 01:26:24;;;;;;;5.40;3.80;;;;;;;24.42;52.94;100880.23;106979;1283;72833;-80
2022/06/01 01:28:49;;;;;;;5.20;4.00;;;;;;;24.42;52.88;100875.56;106854;1283;61488;-81
2022/06/01 01:31:20;;;;;;;4.70;3.80;;;;;;;24.42;52.81;100875.93;106918;1283;61247;-80
2022/06/01 01:33:48;;;;;;;5.80;4.00;;;;;;;24.42;52.89;100870.70;106891;1283;61571;-82
2022/06/01 01:36:14;;;;;;;5.70;4.40;;;;;;;24.41;52.83;100866.64;106457;1283;72793;-81
2022/06/01 01:38:48;;;;;;;5.50;4.00;;;;;;;24.42;52.77;100867.84;106894;1283;74986;-81
2022/06/01 01:41:26;;;;;;;5.00;3.90;;;;;;;24.42;52.81;100866.61;106984;1282;61202;-82
2022/06/01 01:43:57;;;;;;;7.00;4.10;;;;;;;24.41;52.73;100860.88;107223;1283;61784;-83
2022/06/01 01:46:23;;;;;;;5.50;4.10;;;;;;;24.41;52.79;100860.71;106890;1283;72870;-85
2022/06/01 01:48:49;;;;;;;5.50;4.10;;;;;;;24.41;52.78;100861.96;106888;1283;61223;-84
2022/06/01 01:51:19;;;;;;;6.00;4.20;;;;;;;24.41;52.90;100859.64;106892;1283;61251;-82
2022/06/01 01:53:45;;;;;;;6.50;4.10;;;;;;;24.42;52.95;100861.23;106898;1283;61405;-80
2022/06/01 01:57:03;;;;;;;5.00;3.60;;;;;;;24.41;52.89;100852.49;106894;1283;61364;-84
2022/06/01 02:00:07;;;;;;;5.20;4.00;;;;;;;24.40;52.81;100856.13;105835;1291;76073;-81
2022/06/01 02:02:48;;;;;;;7.00;4.10;;;;;;;24.40;52.86;100860.06;105761;1294;61341;-82
2022/06/01 02:08:33;;;;;;;6.60;3.90;;;;;;;24.40;52.87;100859.21;105820;1291;72885;-82
2022/06/01 02:13:55;;;;;;;6.90;4.00;;;;;;;24.39;52.88;100865.17;105857;1291;61818;-81
2022/06/01 02:16:22;;;;;;;5.40;3.80;;;;;;;24.40;52.91;100865.52;105816;1291;61210;-85
2022/06/01 02:18:48;;;;;;;5.10;4.10;;;;;;;24.40;52.67;100864.07;105753;1294;72634;-82
2022/06/01 02:21:17;;;;;;;5.00;3.80;;;;;;;24.40;52.96;100865.86;105965;1291;75021;-82
2022/06/01 02:23:43;;;;;;;6.00;3.80;;;;;;;24.40;52.94;100865.52;105869;1291;61807;-81
2022/06/01 02:26:09;;;;;;;4.90;3.80;;;;;;;24.39;52.96;100864.29;105867;1291;61358;-82
2022/06/01 02:28:36;;;;;;;6.40;4.10;;;;;;;24.40;52.78;100861.91;105805;1291;61290;-82
2022/06/01 02:31:02;;;;;;;6.20;4.00;;;;;;;24.40;52.97;100868.19;105834;1291;61268;-81
2022/06/01 02:33:32;;;;;;;5.20;4.00;;;;;;;24.40;52.80;100873.96;105759;1291;61286;-82
2022/06/01 02:35:58;;;;;;;5.30;4.00;;;;;;;24.40;52.95;100880.60;106541;1283;61289;-83
2022/06/01 02:38:28;;;;;;;6.30;3.80;;;;;;;24.39;52.83;100882.64;106611;1283;61368;-83
2022/06/01 02:40:53;;;;;;;5.00;3.50;;;;;;;24.40;52.89;100885.11;106909;1283;76012;-81
2022/06/01 02:43:19;;;;;;;6.40;3.90;;;;;;;24.39;52.93;100884.77;107254;1283;61266;-82
2022/06/01 02:45:45;;;;;;;4.90;3.90;;;;;;;24.40;52.86;100887.64;106898;1283;61407;-81
2022/06/01 02:48:10;;;;;;;6.50;3.90;;;;;;;24.40;52.93;100890.86;107211;1283;61404;-80
2022/06/01 02:50:36;;;;;;;5.70;4.10;;;;;;;24.39;52.97;100889.63;106903;1283;61449;-81
2022/06/01 02:53:02;;;;;;;5.10;3.80;;;;;;;24.40;52.92;100892.30;106927;1283;61313;-82
2022/06/01 02:55:29;;;;;;;5.30;3.70;;;;;;;24.39;52.89;100896.48;106922;1283;61184;-79
2022/06/01 02:57:54;;;;;;;5.30;4.00;;;;;;;24.39;52.89;100900.45;107015;1283;61150;-81
2022/06/01 03:00:22;;;;;;;4.90;3.90;;;;;;;24.40;52.91;100904.88;106647;1283;61313;-82
2022/06/01 03:03:03;;;;;;;;;;;;;;;;;;;;;
2022/06/01 03:05:33;;;;;;;6.20;3.80;;;;;;;24.40;52.97;100904.72;106923;1283;61349;-82
2022/06/01 03:07:59;;;;;;;4.80;4.10;;;;;;;24.40;52.81;100907.06;107232;1283;61302;-81
2022/06/01 03:10:25;;;;;;;6.70;4.10;;;;;;;24.39;52.89;100908.15;106912;1283;61397;-81
2022/06/01 03:12:50;;;;;;;5.40;3.70;;;;;;;24.40;52.92;100911.20;106902;1283;61298;-81
2022/06/01 03:15:18;;;;;;;5.80;3.50;;;;;;;24.40;52.92;100911.56;106910;1283;61348;-81
2022/06/01 03:17:44;;;;;;;6.00;4.10;;;;;;;24.40;52.91;100914.95;106925;1283;61310;-83
2022/06/01 03:20:11;;;;;;;5.10;3.70;;;;;;;24.40;52.85;100911.36;106910;1283;61292;-81
2022/06/01 03:22:38;;;;;;;6.50;4.10;;;;;;;24.41;52.95;100916.34;106826;1283;61296;-81
2022/06/01 03:25:06;;;;;;;5.30;3.80;;;;;;;24.40;52.86;100914.95;106924;1283;61311;-83
2022/06/01 03:27:32;;;;;;;5.70;3.80;;;;;;;24.41;52.85;100915.45;106991;1283;61152;-82
2022/06/01 03:29:57;;;;;;;4.90;3.70;;;;;;;24.40;52.85;100914.76;106962;1283;61317;-82
2022/06/01 03:32:23;;;;;;;5.30;3.80;;;;;;;24.41;52.92;100913.08;107205;1283;61252;-84
2022/06/01 03:34:48;;;;;;;5.00;3.60;;;;;;;24.40;52.87;100909.71;107239;1283;61283;-81
2022/06/01 03:37:14;;;;;;;6.00;4.10;;;;;;;24.40;52.91;100917.23;106898;1283;61230;-84
2022/06/01 03:39:40;;;;;;;5.50;4.00;;;;;;;24.40;52.92;100914.21;106956;1283;61827;-82
2022/06/01 03:42:06;;;;;;;7.00;3.80;;;;;;;24.40;52.91;100915.29;107179;1283;73557;-78
2022/06/01 03:47:15;;;;;;;6.30;3.70;;;;;;;24.40;52.91;100913.49;106664;1283;61142;-80
2022/06/01 03:49:42;;;;;;;4.90;3.80;;;;;;;24.41;52.90;100912.40;106897;1283;61393;-80
2022/06/01 03:52:08;;;;;;;6.20;4.00;;;;;;;24.41;52.90;100916.13;106944;1283;61273;-81
2022/06/01 03:54:34;;;;;;;5.60;3.40;;;;;;;24.41;53.01;100921.66;106637;1284;61244;-80
2022/06/01 03:57:00;;;;;;;5.70;4.20;;;;;;;24.42;52.96;100922.71;106925;1283;61278;-80
2022/06/01 03:59:26;;;;;;;5.40;3.60;;;;;;;24.43;53.02;100927.16;106729;1283;62009;-81
2022/06/01 04:01:51;;;;;;;5.20;3.60;;;;;;;24.43;52.96;100929.23;106880;1283;61364;-82
2022/06/01 04:04:17;;;;;;;6.10;4.30;;;;;;;24.44;53.06;100932.81;106619;1283;61270;-82
2022/06/01 04:06:42;;;;;;;5.40;3.70;;;;;;;24.44;52.95;100933.33;106598;1283;74599;-81
2022/06/01 04:09:08;;;;;;;5.10;3.60;;;;;;;24.45;52.85;100935.96;106698;1282;61339;-80
2022/06/01 04:11:34;;;;;;;5.40;3.90;;;;;;;24.45;52.91;100933.61;106734;1283;61273;-81
2022/06/01 04:13:59;;;;;;;5.20;3.60;;;;;;;24.46;52.91;100935.73;106820;1283;61284;-84
2022/06/01 04:16:25;;;;;;;5.80;3.80;;;;;;;24.46;52.94;100932.98;106802;1283;61264;-81
2022/06/01 04:18:51;;;;;;;6.30;4.00;;;;;;;24.46;52.98;100933.71;106864;1283;61230;-79
2022/06/01 04:21:18;;;;;;;5.10;3.80;;;;;;;24.47;52.92;100927.37;107220;1283;61147;-83
2022/06/01 04:23:44;;;;;;;5.20;3.70;;;;;;;24.47;52.83;100925.38;106966;1283;61187;-85
2022/06/01 04:26:10;;;;;;;5.10;3.50;;;;;;;24.47;52.91;100920.86;107178;1282;61250;-84
2022/06/01 04:28:36;;;;;;;4.30;3.50;;;;;;;24.48;52.85;100927.48;106876;1283;61238;-82
2022/06/01 04:31:01;;;;;;;5.10;3.60;;;;;;;24.48;52.84;100925.63;106866;1283;61269;-82
2022/06/01 04:33:27;;;;;;;4.90;3.40;;;;;;;24.48;52.86;100928.90;106895;1283;61343;-80
2022/06/01 04:35:53;;;;;;;5.50;3.70;;;;;;;24.48;52.78;100931.20;107266;1283;61361;-79
2022/06/01 04:38:19;;;;;;;4.80;3.70;;;;;;;24.49;52.99;100929.90;106836;1283;73703;-80
2022/06/01 04:40:46;;;;;;;5.00;3.40;;;;;;;24.49;52.86;100930.58;106890;1283;61279;-83
2022/06/01 04:43:16;;;;;;;4.80;3.50;;;;;;;24.50;52.97;100931.81;106896;1283;61337;-83
2022/06/01 04:45:42;;;;;;;5.00;3.80;;;;;;;24.51;52.96;100934.03;106900;1283;61599;-82
2022/06/01 04:48:08;;;;;;;4.40;3.40;;;;;;;24.51;53.02;100933.98;107218;1283;61231;-84
2022/06/01 04:50:34;;;;;;;4.70;3.40;;;;;;;24.54;53.00;100935.55;106850;1283;61420;-82
2022/06/01 04:53:00;;;;;;;5.50;3.70;;;;;;;24.58;53.26;100933.23;106939;1283;61257;-81
2022/06/01 04:55:26;;;;;;;5.00;3.70;;;;;;;24.61;53.27;100932.98;106773;1283;61672;-84
2022/06/01 04:57:51;;;;;;;4.50;3.30;;;;;;;24.65;53.29;100930.20;106903;1283;61266;-85
2022/06/01 05:00:18;;;;;;;7.20;4.10;;;;;;;24.68;53.18;100934.41;106960;1283;61397;-81
2022/06/01 05:02:43;;;;;;;6.30;4.20;;;;;;;24.71;53.04;100935.11;106899;1283;75646;-81
2022/06/01 05:05:09;;;;;;;5.20;3.60;;;;;;;24.72;53.09;100938.36;106905;1283;61275;-81
2022/06/01 05:07:35;;;;;;;5.10;3.90;;;;;;;24.75;53.11;100936.67;106918;1283;61258;-81
2022/06/01 05:10:00;;;;;;;5.60;3.60;;;;;;;24.76;52.97;100936.05;106900;1283;61915;-83
2022/06/01 05:12:26;;;;;;;6.10;3.80;;;;;;;24.78;52.94;100938.09;106901;1283;61256;-78
2022/06/01 05:14:51;;;;;;;4.90;3.50;;;;;;;24.79;52.83;100939.28;106960;1283;59271;-82
2022/06/01 05:17:17;;;;;;;5.80;3.90;;;;;;;24.80;53.04;100939.21;106838;1283;61340;-83
2022/06/01 05:19:43;;;;;;;5.90;3.80;;;;;;;24.81;52.96;100942.37;106913;1283;61261;-80
2022/06/01 05:22:09;;;;;;;6.50;3.80;;;;;;;24.81;53.02;100941.98;107211;1283;61150;-78
2022/06/01 05:24:34;;;;;;;5.20;3.90;;;;;;;24.81;52.91;100942.52;106870;1283;61364;-81
2022/06/01 05:27:00;;;;;;;5.50;4.10;;;;;;;24.82;52.83;100939.23;106907;1283;61680;-82
2022/06/01 05:29:28;;;;;;;4.80;3.80;;;;;;;24.82;52.86;100940.30;106875;1283;61352;-84
2022/06/01 05:31:54;;;;;;;5.40;4.00;;;;;;;24.81;52.98;100938.70;106591;1283;61362;-83
2022/06/01 05:34:21;;;;;;;6.00;4.50;;;;;;;24.81;53.03;100936.92;106871;1283;61343;-81
2022/06/01 05:36:47;;;;;;;5.90;4.10;;;;;;;24.82;52.95;100941.16;106885;1283;61347;-81
2022/06/01 05:39:13;;;;;;;5.30;4.00;;;;;;;24.82;53.07;100942.58;106620;1283;61322;-81
2022/06/01 05:41:40;;;;;;;5.40;4.00;;;;;;;24.83;52.93;100945.74;106619;1283;61271;-79
2022/06/01 05:44:06;;;;;;;6.30;3.90;;;;;;;24.83;52.98;100947.34;106844;1283;60360;-81
2022/06/01 05:46:35;;;;;;;6.80;4.30;;;;;;;24.84;53.03;100950.71;107135;1283;61162;-81
2022/06/01 05:49:03;;;;;;;4.50;3.70;;;;;;;24.85;52.97;100952.25;106903;1283;61240;-81
2022/06/01 05:51:28;;;;;;;5.60;4.00;;;;;;;24.85;52.90;100949.36;106909;1283;72821;-80
2022/06/01 05:53:54;;;;;;;6.30;4.00;;;;;;;24.85;53.01;100948.45;107112;1283;61358;-81
2022/06/01 05:56:20;;;;;;;5.80;3.80;;;;;;;24.85;53.19;100945.20;106812;1283;61281;-81
2022/06/01 05:58:47;;;;;;;5.30;3.70;;;;;;;24.86;52.95;100944.25;106769;1283;61195;-81
2022/06/01 06:01:13;;;;;;;5.60;4.00;;;;;;;24.86;53.02;100940.98;106808;1283;61237;-79
2022/06/01 06:03:38;;;;;;;5.20;3.70;;;;;;;24.87;52.89;100941.80;106844;1283;61814;-81
2022/06/01 06:06:15;;;;;;;5.60;3.90;;;;;;;24.87;52.92;100939.80;107146;1283;61297;-81
2022/06/01 06:09:07;;;;;;;5.70;4.10;;;;;;;24.87;53.04;100939.42;106879;1283;61183;-81
2022/06/01 06:11:35;;;;;;;5.60;3.80;;;;;;;24.88;53.02;100938.70;107151;1283;72611;-85
2022/06/01 06:14:01;;;;;;;5.40;3.70;;;;;;;24.88;52.94;100938.14;106180;1284;862187;-79
2022/06/01 06:16:28;;;;;;;5.90;4.20;;;;;;;24.88;52.94;100938.66;106891;1283;61552;-81
2022/06/01 06:18:56;;;;;;;5.10;4.00;;;;;;;24.88;52.99;100933.96;107029;1283;61215;-82
2022/06/01 06:21:26;;;;;;;5.40;3.80;;;;;;;24.89;53.00;100937.11;106826;1283;73743;-81
2022/06/01 06:23:53;;;;;;;5.60;4.10;;;;;;;24.89;53.01;100935.50;106625;1283;76546;-81
2022/06/01 06:26:20;;;;;;;5.40;3.70;;;;;;;24.90;53.15;100937.44;106878;1283;61284;-84
2022/06/01 06:28:47;;;;;;;6.30;3.60;;;;;;;24.90;52.94;100938.29;106883;1283;61189;-82
2022/06/01 06:31:12;;;;;;;5.90;4.10;;;;;;;24.90;53.00;100934.31;106572;1284;61268;-84
2022/06/01 06:33:40;;;;;;;5.90;3.90;;;;;;;24.90;53.21;100934.67;106888;1283;61231;-80
2022/06/01 06:36:07;;;;;;;6.00;3.80;;;;;;;24.91;53.01;100934.82;106840;1283;61362;-81
2022/06/01 06:38:35;;;;;;;6.10;4.00;;;;;;;24.91;53.11;100936.02;106858;1283;61273;-81
2022/06/01 06:41:01;;;;;;;5.60;4.10;;;;;;;24.91;53.14;100934.42;106754;1284;72711;-81
2022/06/01 06:43:28;;;;;;;6.50;4.00;;;;;;;24.91;53.02;100934.03;106781;1283;61274;-81
2022/06/01 06:46:01;;;;;;;5.40;4.00;;;;;;;24.92;53.06;100934.55;106838;1283;61151;-81
2022/06/01 06:48:27;;;;;;;6.70;4.20;;;;;;;24.92;53.02;100935.27;106846;1283;61443;-83
2022/06/01 06:50:52;;;;;;;5.00;3.90;;;;;;;24.92;53.21;100935.80;106794;1283;61163;-82
2022/06/01 06:53:18;;;;;;;6.30;4.40;;;;;;;24.92;53.01;100936.14;106822;1283;61266;-82
2022/06/01 06:55:44;;;;;;;6.00;4.00;;;;;;;24.92;53.03;100930.91;106833;1283;61268;-82
2022/06/01 06:58:10;;;;;;;5.40;4.20;;;;;;;24.93;53.08;100931.23;106881;1283;61272;-84
2022/06/01 07:00:36;;;;;;;5.40;4.00;;;;;;;24.93;53.03;100931.58;106949;1283;61273;-82
2022/06/01 07:03:02;;;;;;;5.70;3.90;;;;;;;24.93;53.03;100924.20;106032;1285;72648;-80
2022/06/01 07:08:12;;;;;;;6.40;4.50;;;;;;;24.94;53.13;100921.63;106755;1283;61181;-82
2022/06/01 07:10:38;;;;;;;5.50;3.90;;;;;;;24.93;53.14;100919.30;106674;1283;61398;-81
2022/06/01 07:13:04;;;;;;;5.30;4.10;;;;;;;24.94;53.03;100923.39;106815;1283;61290;-81
2022/06/01 07:15:29;;;;;;;5.90;4.00;;;;;;;24.94;53.11;100922.86;106975;1283;61254;-81
2022/06/01 07:17:55;;;;;;;5.20;3.70;;;;;;;24.94;53.11;100925.55;106836;1283;61281;-81
2022/06/01 07:20:21;;;;;;;6.40;4.30;;;;;;;24.94;53.26;100921.58;107250;1283;61351;-81
2022/06/01 07:22:47;;;;;;;6.10;4.10;;;;;;;24.95;53.10;100921.20;106888;1283;61352;-81
2022/06/01 07:25:13;;;;;;;5.40;4.00;;;;;;;24.94;53.17;100927.71;106870;1283;61286;-83
2022/06/01 07:27:38;;;;;;;7.40;4.60;;;;;;;24.94;53.08;100927.40;106928;1283;61270;-80
2022/06/01 07:30:05;;;;;;;5.80;4.10;;;;;;;24.94;53.25;100924.50;106894;1283;61404;-82
2022/06/01 07:32:31;;;;;;;5.40;4.10;;;;;;;24.94;53.20;100921.80;106891;1283;62549;-81
2022/06/01 07:34:56;;;;;;;6.80;4.10;;;;;;;24.94;53.02;100917.50;106859;1283;61284;-82
2022/06/01 07:43:06;;;;;;;5.50;4.00;;;;;;;24.92;53.12;100924.77;106937;1283;61291;-81
2022/06/01 07:45:36;;;;;;;5.60;4.10;;;;;;;24.92;53.14;100920.52;106961;1283;61343;-83
2022/06/01 07:48:03;;;;;;;5.80;4.20;;;;;;;24.92;53.14;100919.05;106652;1283;73957;-82
2022/06/01 07:50:28;;;;;;;5.80;4.20;;;;;;;24.92;53.09;100918.35;106818;1283;75659;-81
2022/06/01 07:52:54;;;;;;;5.40;4.00;;;;;;;24.92;53.14;100916.16;106902;1283;61362;-82
2022/06/01 07:55:20;;;;;;;6.60;4.20;;;;;;;24.92;53.14;100913.65;106906;1281;61266;-81
2022/06/01 07:57:45;;;;;;;5.30;4.00;;;;;;;24.92;53.21;100913.86;107195;1283;61358;-81
2022/06/01 08:00:11;;;;;;;5.40;4.30;;;;;;;24.91;53.17;100914.09;106826;1283;61242;-81
2022/06/01 08:02:38;;;;;;;5.50;4.20;;;;;;;24.91;53.19;100911.35;106937;1283;61223;-83
2022/06/01 08:05:05;;;;;;;5.70;4.30;;;;;;;24.92;53.00;100911.52;106863;1283;61126;-82
2022/06/01 08:07:31;;;;;;;5.00;3.80;;;;;;;24.92;53.17;100911.89;107200;1283;61085;-83
2022/06/01 08:09:56;;;;;;;6.10;4.00;;;;;;;24.92;53.15;100909.53;106895;1283;61391;-83
2022/06/01 08:15:07;;;;;;;6.30;4.10;;;;;;;24.92;53.10;100909.19;106903;1283;61293;-82
2022/06/01 08:17:32;;;;;;;5.40;4.20;;;;;;;24.91;53.14;100910.13;106872;1283;61197;-82
2022/06/01 08:19:58;;;;;;;5.90;4.40;;;;;;;24.91;53.18;100913.55;106638;1283;61257;-84
2022/06/01 08:22:23;;;;;;;5.60;4.00;;;;;;;24.91;53.17;100914.41;107041;1283;61798;-84
2022/06/01 08:24:49;;;;;;;6.60;4.10;;;;;;;24.91;53.11;100918.73;106877;1283;61275;-85
2022/06/01 08:27:15;;;;;;;5.30;4.10;;;;;;;24.91;53.20;100922.52;106842;1284;61712;-84
2022/06/01 08:29:41;;;;;;;5.00;4.00;;;;;;;24.91;53.10;100921.98;106907;1283;61385;-79
2022/06/01 08:32:07;;;;;;;5.50;4.20;;;;;;;24.92;53.17;100921.23;106835;1283;61368;-83
2022/06/01 08:34:35;;;;;;;6.10;4.40;;;;;;;24.91;53.28;100922.35;106854;1283;61257;-81
2022/06/01 08:37:01;;;;;;;5.00;4.10;;;;;;;24.91;53.24;100920.06;106859;1283;61387;-81
2022/06/01 08:39:26;;;;;;;5.80;4.10;;;;;;;24.90;53.13;100926.03;106840;1286;61297;-82
2022/06/01 08:41:52;;;;;;;4.90;4.10;;;;;;;24.90;53.17;100924.48;106874;1283;61187;-82
2022/06/01 08:44:30;;;;;;;5.60;4.50;;;;;;;24.89;53.24;100921.83;106675;1283;61372;-82
2022/06/01 08:47:03;;;;;;;5.30;3.70;;;;;;;24.89;53.16;100920.72;106675;1283;61279;-80
2022/06/01 08:49:30;;;;;;;6.10;4.10;;;;;;;24.89;53.19;100918.76;106899;1283;61672;-81
2022/06/01 08:51:56;;;;;;;5.90;4.30;;;;;;;24.89;53.19;100915.88;106828;1283;73441;-79
2022/06/01 08:54:21;;;;;;;5.70;4.10;;;;;;;24.89;53.15;100916.25;106881;1284;62337;-81
2022/06/01 08:56:53;;;;;;;5.70;4.10;;;;;;;24.89;53.31;100915.17;106887;1283;61339;-81
2022/06/01 08:59:46;;;;;;;5.90;4.30;;;;;;;24.89;53.29;100917.54;107165;1283;61131;-82
2022/06/01 09:02:36;;;;;;;4.90;3.80;;;;;;;24.89;53.41;100918.96;107205;1283;72490;-78
2022/06/01 09:05:10;;;;;;;6.40;4.50;;;;;;;24.89;53.32;100920.05;107187;1283;74790;-81
2022/06/01 09:07:50;;;;;;;5.60;4.20;;;;;;;24.89;53.19;100919.16;106871;1283;61194;-82
2022/06/01 09:10:35;;;;;;;5.20;4.10;;;;;;;24.89;53.37;100915.95;106842;1283;61452;-84
2022/06/01 09:13:09;;;;;;;6.10;4.40;;;;;;;24.88;53.25;100912.92;107201;1283;72739;-82
2022/06/01 09:15:49;;;;;;;6.60;4.40;;;;;;;24.88;53.22;100908.83;106862;1283;74607;-82
2022/06/01 09:18:17;;;;;;;5.80;4.30;;;;;;;24.87;53.32;100907.40;106809;1283;61541;-83
2022/06/01 09:23:26;;;;;;;5.20;4.20;;;;;;;24.87;53.24;100904.35;106908;1283;73911;-80
2022/06/01 09:25:55;;;;;;;5.40;4.10;;;;;;;24.87;53.30;100901.69;106844;1283;61263;-82
2022/06/01 09:28:24;;;;;;;6.10;4.20;;;;;;;24.87;53.11;100896.80;106616;1285;61027;-81
2022/06/01 09:30:55;;;;;;;;;;;;;;;24.87;53.19;100896.27;106645;1284;61331;-81
2022/06/01 09:33:29;;;;;;;4.90;3.90;;;;;;;24.85;53.29;100894.63;107216;1283;72819;-81
2022/06/01 09:36:07;;;;;;;5.00;4.00;;;;;;;24.86;53.12;100899.26;106419;1284;75293;-82
2022/06/01 09:38:51;;;;;;;7.20;4.40;;;;;;;24.86;53.17;100900.88;107186;1283;62322;-81
2022/06/01 09:41:21;;;;;;;6.10;4.50;;;;;;;24.85;53.19;100899.66;107221;1283;61090;-81
2022/06/01 09:44:01;;;;;;;5.50;4.50;;;;;;;24.85;53.23;100896.95;107048;1283;72521;-81
2022/06/01 09:46:39;;;;;;;6.70;4.20;;;;;;;24.85;53.19;100893.03;107032;1283;74700;-82
2022/06/01 09:49:42;;;;;;;6.00;4.30;;;;;;;24.85;53.21;100892.89;107193;1283;61142;-84
2022/06/01 09:52:13;;;;;;;5.50;4.20;;;;;;;24.84;53.25;100889.70;105971;1291;61332;-84
2022/06/01 09:54:43;;;;;;;5.10;4.20;;;;;;;24.84;53.20;100890.24;106049;1290;72825;-83
2022/06/01 09:57:16;;;;;;;4.90;4.00;;;;;;;24.84;53.21;100888.62;106092;1290;74708;-81
2022/06/01 10:08:21;;;;;;;5.90;4.10;;;;;;;24.83;53.18;100885.81;106072;1290;74567;-81
2022/06/01 10:11:01;;;;;;;5.40;4.20;;;;;;;24.83;53.17;100887.23;106050;1290;61174;-80
2022/06/01 10:13:50;;;;;;;5.70;4.10;;;;;;;24.83;53.28;100884.59;106096;1290;61180;-83
2022/06/01 10:16:29;;;;;;;6.30;4.40;;;;;;;24.83;53.31;100884.41;106013;1291;72752;-83
2022/06/01 10:18:55;;;;;;;6.20;4.00;;;;;;;24.82;53.27;100884.10;106058;1290;75551;-81
2022/06/01 10:21:24;;;;;;;5.10;4.20;;;;;;;24.82;53.24;100882.48;106034;1290;61353;-80
2022/06/01 10:23:51;;;;;;;4.50;3.90;;;;;;;24.82;53.23;100879.42;106087;1290;61163;-80
2022/06/01 10:26:27;;;;;;;5.30;4.30;;;;;;;24.82;53.23;100880.17;106048;1290;72809;-80
2022/06/01 10:29:07;;;;;;;5.40;4.00;;;;;;;24.81;53.19;100876.42;106072;1284;73851;-81
2022/06/01 10:31:39;;;;;;;5.20;4.00;;;;;;;24.82;53.17;100877.46;106858;1283;61202;-82
2022/06/01 10:34:26;;;;;;;5.30;4.30;;;;;;;24.81;53.12;100875.34;106835;1283;61337;-80
2022/06/01 10:37:20;;;;;;;5.50;4.20;;;;;;;24.81;53.21;100873.38;107059;1283;72998;-81
2022/06/01 10:40:11;;;;;;;6.20;4.10;;;;;;;24.81;53.19;100873.23;106933;1283;74562;-80
2022/06/01 10:43:18;;;;;;;6.00;3.90;;;;;;;24.81;53.23;100871.22;106955;1284;61524;-80
2022/06/01 10:45:49;;;;;;;5.80;4.30;;;;;;;24.81;53.20;100872.46;107105;1283;61166;-81
2022/06/01 10:48:42;;;;;;;5.80;4.70;;;;;;;24.82;53.17;100865.39;106762;1283;73578;-82
2022/06/01 10:51:22;;;;;;;5.10;4.00;;;;;;;24.83;53.31;100865.85;107089;1283;75748;-81
2022/06/01 10:54:05;;;;;;;5.10;4.00;;;;;;;24.83;53.17;100864.20;107200;1283;61496;-81
2022/06/01 10:56:31;;;;;;;5.40;4.20;;;;;;;24.83;53.17;100866.55;107188;1283;61327;-82
2022/06/01 10:59:01;;;;;;;5.20;4.50;;;;;;;24.83;53.24;100865.65;106788;1283;61315;-82
2022/06/01 11:02:20;;;;;;;6.60;4.30;;;;;;;24.84;53.17;100864.16;106723;1283;74476;-80
2022/06/01 11:04:55;;;;;;;5.40;4.00;;;;;;;24.83;53.17;100861.70;106443;1283;61145;-80
2022/06/01 11:07:38;;;;;;;6.00;4.70;;;;;;;24.83;52.98;100861.67;106642;1283;61445;-80
2022/06/01 11:10:52;;;;;;;5.00;3.90;;;;;;;24.84;53.12;100859.27;107132;1283;72619;-80
2022/06/01 11:13:31;;;;;;;5.30;4.00;;;;;;;24.84;53.22;100854.42;106492;1283;74051;-79
2022/06/01 11:16:04;;;;;;;5.60;4.40;;;;;;;24.84;53.21;100854.05;106969;1283;61279;-81
2022/06/01 11:18:43;;;;;;;5.90;4.50;;;;;;;24.84;53.17;100852.44;107177;1283;61199;-81
2022/06/01 11:21:18;;;;;;;5.20;4.40;;;;;;;24.84;53.11;100851.31;107203;1283;73669;-81
2022/06/01 11:23:59;;;;;;;5.50;4.10;;;;;;;24.84;53.02;100848.67;107203;1283;74433;-81
2022/06/01 11:26:47;;;;;;;5.60;4.30;;;;;;;24.84;53.09;100850.80;107043;1283;61126;-81
2022/06/01 11:29:22;;;;;;;5.40;4.20;;;;;;;24.83;53.06;100846.02;107207;1282;61238;-81
2022/06/01 11:31:52;;;;;;;5.20;4.20;;;;;;;24.83;53.04;100844.09;107201;1283;74191;-82
2022/06/01 11:34:40;;;;;;;5.40;4.50;;;;;;;24.83;53.07;100841.73;106854;1283;75766;-81
2022/06/01 11:37:14;;;;;;;6.50;4.50;;;;;;;24.82;53.04;100837.65;107207;1283;61546;-81
2022/06/01 11:40:11;;;;;;;5.20;4.30;;;;;;;24.82;52.99;100835.87;107231;1282;60114;-82
2022/06/01 11:42:55;;;;;;;5.50;4.20;;;;;;;24.81;52.96;100836.46;107175;1283;74088;-82
2022/06/01 11:45:40;;;;;;;5.30;4.00;;;;;;;24.81;53.03;100833.45;106855;1282;75487;-82
2022/06/01 11:48:11;;;;;;;5.80;4.50;;;;;;;24.81;53.03;100828.20;106899;1283;61280;-80
2022/06/01 11:50:43;;;;;;;5.50;4.40;;;;;;;24.81;52.95;100819.80;106867;1284;61277;-81
2022/06/01 11:53:11;;;;;;;5.90;4.90;;;;;;;24.81;52.96;100813.64;107204;1283;72576;-82
2022/06/01 11:55:37;;;;;;;5.70;4.60;;;;;;;24.81;53.00;100812.17;106674;1284;75748;-83
2022/06/01 11:58:23;;;;;;;6.00;4.60;;;;;;;24.81;52.90;100808.04;107205;1283;61245;-81
2022/06/01 12:00:52;;;;;;;4.80;3.90;;;;;;;24.81;53.01;100809.85;106996;1283;61318;-82
2022/06/01 12:03:21;;;;;;;5.50;4.40;;;;;;;24.82;52.96;100810.00;106584;1283;71546;-83
2022/06/01 12:06:11;;;;;;;6.20;4.30;;;;;;;24.81;52.95;100808.27;107197;1283;75832;-81